sensor_id;sensor_type;location;lat;lon;timestamp;temperature;humidity
55173;DHT22;41061;52.822;6.860;2022-10-19T00:03:34;10.70;99.90
55173;DHT22;41061;52.822;6.860;2022-10-19T00:06:10;10.70;99.90
55173;DHT22;41061;52.822;6.860;2022-10-19T00:08:35;10.50;99.90
55173;DHT22;41061;52.822;6.860;2022-10-19T00:20:46;10.40;99.90
55173;DHT22;41061;52.822;6.860;2022-10-19T00:23:12;10.30;99.90
55173;DHT22;41061;52.822;6.860;2022-10-19T00:25:37;10.30;99.90
55173;DHT22;41061;52.822;6.860;2022-10-19T00:28:03;10.20;99.90
55173;DHT22;41061;52.822;6.860;2022-10-19T00:32:58;10.20;99.90
55173;DHT22;41061;52.822;6.860;2022-10-19T00:35:23;10.20;99.90
55173;DHT22;41061;52.822;6.860;2022-10-19T00:37:49;10.20;99.90
55173;DHT22;41061;52.822;6.860;2022-10-19T00:40:16;10.20;99.90
55173;DHT22;41061;52.822;6.860;2022-10-19T00:42:41;10.10;99.90
55173;DHT22;41061;52.822;6.860;2022-10-19T00:45:14;10.10;99.90
55173;DHT22;41061;52.822;6.860;2022-10-19T01:02:23;10.30;99.90
55173;DHT22;41061;52.822;6.860;2022-10-19T01:07:18;10.10;99.90
55173;DHT22;41061;52.822;6.860;2022-10-19T01:09:44;10.10;99.90
55173;DHT22;41061;52.822;6.860;2022-10-19T01:17:59;10.00;99.90
55173;DHT22;41061;52.822;6.860;2022-10-19T01:32:07;9.90;99.90
55173;DHT22;41061;52.822;6.860;2022-10-19T01:35:00;9.90;99.90
55173;DHT22;41061;52.822;6.860;2022-10-19T01:37:50;10.00;99.90
55173;DHT22;41061;52.822;6.860;2022-10-19T01:49:18;10.00;99.90
55173;DHT22;41061;52.822;6.860;2022-10-19T01:51:53;10.00;99.90
55173;DHT22;41061;52.822;6.860;2022-10-19T01:54:21;10.10;99.90
55173;DHT22;41061;52.822;6.860;2022-10-19T01:56:48;10.10;99.90
55173;DHT22;41061;52.822;6.860;2022-10-19T01:59:17;10.10;99.90
55173;DHT22;41061;52.822;6.860;2022-10-19T02:01:45;10.10;99.90
55173;DHT22;41061;52.822;6.860;2022-10-19T02:04:14;10.20;99.90
55173;DHT22;41061;52.822;6.860;2022-10-19T02:06:42;10.10;99.90
55173;DHT22;41061;52.822;6.860;2022-10-19T02:09:08;10.10;99.90
55173;DHT22;41061;52.822;6.860;2022-10-19T02:11:35;10.20;99.90
55173;DHT22;41061;52.822;6.860;2022-10-19T02:14:09;10.20;99.90
55173;DHT22;41061;52.822;6.860;2022-10-19T02:16:41;10.20;99.90
55173;DHT22;41061;52.822;6.860;2022-10-19T02:19:10;10.20;99.90
55173;DHT22;41061;52.822;6.860;2022-10-19T02:21:39;10.20;99.90
55173;DHT22;41061;52.822;6.860;2022-10-19T02:24:04;10.20;99.90
55173;DHT22;41061;52.822;6.860;2022-10-19T02:26:30;10.20;99.90
55173;DHT22;41061;52.822;6.860;2022-10-19T02:28:57;10.20;99.90
55173;DHT22;41061;52.822;6.860;2022-10-19T02:31:23;10.20;99.90
55173;DHT22;41061;52.822;6.860;2022-10-19T02:33:49;10.30;99.90
55173;DHT22;41061;52.822;6.860;2022-10-19T02:36:15;10.30;99.90
55173;DHT22;41061;52.822;6.860;2022-10-19T02:38:41;10.20;99.90
55173;DHT22;41061;52.822;6.860;2022-10-19T02:43:44;10.30;99.90
55173;DHT22;41061;52.822;6.860;2022-10-19T02:46:26;10.30;99.90
55173;DHT22;41061;52.822;6.860;2022-10-19T02:48:54;10.30;99.90
55173;DHT22;41061;52.822;6.860;2022-10-19T02:54:00;10.30;99.90
55173;DHT22;41061;52.822;6.860;2022-10-19T02:56:26;10.30;99.90
55173;DHT22;41061;52.822;6.860;2022-10-19T02:58:53;10.30;99.90
55173;DHT22;41061;52.822;6.860;2022-10-19T03:01:19;10.30;99.90
55173;DHT22;41061;52.822;6.860;2022-10-19T03:03:45;10.30;99.90
55173;DHT22;41061;52.822;6.860;2022-10-19T03:06:11;10.30;99.90
55173;DHT22;41061;52.822;6.860;2022-10-19T03:08:37;10.30;99.90
55173;DHT22;41061;52.822;6.860;2022-10-19T03:11:03;10.30;99.90
55173;DHT22;41061;52.822;6.860;2022-10-19T03:13:29;10.30;99.90
55173;DHT22;41061;52.822;6.860;2022-10-19T03:15:55;10.30;99.90
55173;DHT22;41061;52.822;6.860;2022-10-19T03:18:20;10.30;99.90
55173;DHT22;41061;52.822;6.860;2022-10-19T03:20:46;10.20;99.90
55173;DHT22;41061;52.822;6.860;2022-10-19T03:23:11;10.20;99.90
55173;DHT22;41061;52.822;6.860;2022-10-19T03:25:37;10.20;99.90
55173;DHT22;41061;52.822;6.860;2022-10-19T03:28:03;10.20;99.90
55173;DHT22;41061;52.822;6.860;2022-10-19T03:30:28;10.10;99.90
55173;DHT22;41061;52.822;6.860;2022-10-19T03:32:54;10.10;99.90
55173;DHT22;41061;52.822;6.860;2022-10-19T03:35:20;10.10;99.90
55173;DHT22;41061;52.822;6.860;2022-10-19T03:37:46;10.00;99.90
55173;DHT22;41061;52.822;6.860;2022-10-19T03:40:11;9.90;99.90
55173;DHT22;41061;52.822;6.860;2022-10-19T03:42:37;9.90;99.90
55173;DHT22;41061;52.822;6.860;2022-10-19T03:45:03;9.80;99.90
55173;DHT22;41061;52.822;6.860;2022-10-19T03:47:28;9.80;99.90
55173;DHT22;41061;52.822;6.860;2022-10-19T03:49:54;9.80;99.90
55173;DHT22;41061;52.822;6.860;2022-10-19T03:52:20;9.70;99.90
55173;DHT22;41061;52.822;6.860;2022-10-19T03:54:48;9.80;99.90
55173;DHT22;41061;52.822;6.860;2022-10-19T03:57:14;9.70;99.90
55173;DHT22;41061;52.822;6.860;2022-10-19T03:59:40;9.70;99.90
55173;DHT22;41061;52.822;6.860;2022-10-19T04:02:06;9.70;99.90
55173;DHT22;41061;52.822;6.860;2022-10-19T04:04:31;9.70;99.90
55173;DHT22;41061;52.822;6.860;2022-10-19T04:06:57;9.70;99.90
55173;DHT22;41061;52.822;6.860;2022-10-19T04:09:23;9.70;99.90
55173;DHT22;41061;52.822;6.860;2022-10-19T04:11:49;9.70;99.90
55173;DHT22;41061;52.822;6.860;2022-10-19T04:14:17;9.70;99.90
55173;DHT22;41061;52.822;6.860;2022-10-19T04:16:44;9.70;99.90
55173;DHT22;41061;52.822;6.860;2022-10-19T04:19:13;9.70;99.90
55173;DHT22;41061;52.822;6.860;2022-10-19T04:21:40;9.70;99.90
55173;DHT22;41061;52.822;6.860;2022-10-19T04:24:13;9.70;99.90
55173;DHT22;41061;52.822;6.860;2022-10-19T04:26:44;9.70;99.90
55173;DHT22;41061;52.822;6.860;2022-10-19T04:29:10;9.70;99.90
55173;DHT22;41061;52.822;6.860;2022-10-19T04:31:36;9.70;99.90
55173;DHT22;41061;52.822;6.860;2022-10-19T04:34:03;9.60;99.90
55173;DHT22;41061;52.822;6.860;2022-10-19T04:36:28;9.60;99.90
55173;DHT22;41061;52.822;6.860;2022-10-19T04:38:54;9.60;99.90
55173;DHT22;41061;52.822;6.860;2022-10-19T04:41:21;9.70;99.90
55173;DHT22;41061;52.822;6.860;2022-10-19T04:43:47;9.60;99.90
55173;DHT22;41061;52.822;6.860;2022-10-19T04:46:16;9.60;99.90
55173;DHT22;41061;52.822;6.860;2022-10-19T04:48:42;9.60;99.90
55173;DHT22;41061;52.822;6.860;2022-10-19T04:51:09;9.60;99.90
55173;DHT22;41061;52.822;6.860;2022-10-19T04:53:36;9.70;99.90
55173;DHT22;41061;52.822;6.860;2022-10-19T04:56:13;9.70;99.90
55173;DHT22;41061;52.822;6.860;2022-10-19T04:58:40;9.60;99.90
55173;DHT22;41061;52.822;6.860;2022-10-19T05:01:07;9.50;99.90
55173;DHT22;41061;52.822;6.860;2022-10-19T05:03:33;9.60;99.90
55173;DHT22;41061;52.822;6.860;2022-10-19T05:05:59;9.70;99.90
55173;DHT22;41061;52.822;6.860;2022-10-19T05:08:25;9.70;99.90
55173;DHT22;41061;52.822;6.860;2022-10-19T05:10:50;9.70;99.90
55173;DHT22;41061;52.822;6.860;2022-10-19T05:13:16;9.70;99.90
55173;DHT22;41061;52.822;6.860;2022-10-19T05:15:42;9.70;99.90
55173;DHT22;41061;52.822;6.860;2022-10-19T05:18:07;9.70;99.90
55173;DHT22;41061;52.822;6.860;2022-10-19T05:20:33;9.60;99.90
55173;DHT22;41061;52.822;6.860;2022-10-19T05:22:59;9.60;99.90
55173;DHT22;41061;52.822;6.860;2022-10-19T05:25:24;9.60;99.90
55173;DHT22;41061;52.822;6.860;2022-10-19T05:27:51;9.60;99.90
55173;DHT22;41061;52.822;6.860;2022-10-19T05:30:19;9.60;99.90
55173;DHT22;41061;52.822;6.860;2022-10-19T05:32:46;9.70;99.90
55173;DHT22;41061;52.822;6.860;2022-10-19T05:35:12;9.70;99.90
55173;DHT22;41061;52.822;6.860;2022-10-19T05:37:37;9.80;99.90
55173;DHT22;41061;52.822;6.860;2022-10-19T05:40:03;9.70;99.90
55173;DHT22;41061;52.822;6.860;2022-10-19T05:42:29;9.80;99.90
55173;DHT22;41061;52.822;6.860;2022-10-19T05:44:55;9.70;99.90
55173;DHT22;41061;52.822;6.860;2022-10-19T05:47:20;9.80;99.90
55173;DHT22;41061;52.822;6.860;2022-10-19T05:49:47;9.70;99.90
55173;DHT22;41061;52.822;6.860;2022-10-19T05:52:12;9.80;99.90
55173;DHT22;41061;52.822;6.860;2022-10-19T05:54:38;9.80;99.90
55173;DHT22;41061;52.822;6.860;2022-10-19T05:57:04;9.80;99.90
55173;DHT22;41061;52.822;6.860;2022-10-19T05:59:29;9.80;99.90
55173;DHT22;41061;52.822;6.860;2022-10-19T06:01:55;9.80;99.90
55173;DHT22;41061;52.822;6.860;2022-10-19T06:04:21;9.80;99.90
55173;DHT22;41061;52.822;6.860;2022-10-19T06:06:46;9.80;99.90
55173;DHT22;41061;52.822;6.860;2022-10-19T06:09:12;9.90;99.90
55173;DHT22;41061;52.822;6.860;2022-10-19T06:11:40;9.90;99.90
55173;DHT22;41061;52.822;6.860;2022-10-19T06:14:09;9.80;99.90
55173;DHT22;41061;52.822;6.860;2022-10-19T06:16:36;9.80;99.90
55173;DHT22;41061;52.822;6.860;2022-10-19T06:19:02;9.90;99.90
55173;DHT22;41061;52.822;6.860;2022-10-19T06:21:29;9.80;99.90
55173;DHT22;41061;52.822;6.860;2022-10-19T06:23:57;9.70;99.90
55173;DHT22;41061;52.822;6.860;2022-10-19T06:26:24;9.80;99.90
55173;DHT22;41061;52.822;6.860;2022-10-19T06:28:53;9.80;99.90
55173;DHT22;41061;52.822;6.860;2022-10-19T06:31:19;9.70;99.90
55173;DHT22;41061;52.822;6.860;2022-10-19T06:33:45;9.80;99.90
55173;DHT22;41061;52.822;6.860;2022-10-19T06:36:16;9.80;99.90
55173;DHT22;41061;52.822;6.860;2022-10-19T06:38:43;9.90;99.90
55173;DHT22;41061;52.822;6.860;2022-10-19T06:41:10;9.90;99.90
55173;DHT22;41061;52.822;6.860;2022-10-19T06:43:36;9.90;99.90
55173;DHT22;41061;52.822;6.860;2022-10-19T06:46:11;9.80;99.90
55173;DHT22;41061;52.822;6.860;2022-10-19T06:56:04;10.10;99.90
55173;DHT22;41061;52.822;6.860;2022-10-19T06:58:34;10.00;99.90
55173;DHT22;41061;52.822;6.860;2022-10-19T07:01:03;10.00;99.90
55173;DHT22;41061;52.822;6.860;2022-10-19T07:03:31;10.00;99.90
55173;DHT22;41061;52.822;6.860;2022-10-19T07:05:59;10.00;99.90
55173;DHT22;41061;52.822;6.860;2022-10-19T07:08:26;10.00;99.90
55173;DHT22;41061;52.822;6.860;2022-10-19T07:10:54;10.10;99.90
55173;DHT22;41061;52.822;6.860;2022-10-19T07:13:20;10.20;99.90
55173;DHT22;41061;52.822;6.860;2022-10-19T07:15:47;10.30;99.90
55173;DHT22;41061;52.822;6.860;2022-10-19T07:18:13;10.20;99.90
55173;DHT22;41061;52.822;6.860;2022-10-19T07:28:01;10.30;99.90
55173;DHT22;41061;52.822;6.860;2022-10-19T07:30:26;10.40;99.90
55173;DHT22;41061;52.822;6.860;2022-10-19T07:32:52;10.40;99.90
55173;DHT22;41061;52.822;6.860;2022-10-19T07:35:18;10.40;99.90
55173;DHT22;41061;52.822;6.860;2022-10-19T07:37:44;10.50;99.90
55173;DHT22;41061;52.822;6.860;2022-10-19T07:40:10;10.50;99.90
55173;DHT22;41061;52.822;6.860;2022-10-19T07:42:36;10.60;99.90
55173;DHT22;41061;52.822;6.860;2022-10-19T07:45:02;10.60;99.90
55173;DHT22;41061;52.822;6.860;2022-10-19T07:47:28;10.80;99.90
55173;DHT22;41061;52.822;6.860;2022-10-19T07:49:54;11.00;99.90
55173;DHT22;41061;52.822;6.860;2022-10-19T07:52:20;10.90;99.90
55173;DHT22;41061;52.822;6.860;2022-10-19T07:54:45;11.00;99.90
55173;DHT22;41061;52.822;6.860;2022-10-19T07:57:14;11.00;99.90
55173;DHT22;41061;52.822;6.860;2022-10-19T07:59:40;11.10;99.90
55173;DHT22;41061;52.822;6.860;2022-10-19T08:02:13;11.10;99.90
55173;DHT22;41061;52.822;6.860;2022-10-19T08:04:40;11.20;99.90
55173;DHT22;41061;52.822;6.860;2022-10-19T08:07:06;11.30;99.90
55173;DHT22;41061;52.822;6.860;2022-10-19T08:09:31;11.30;99.90
55173;DHT22;41061;52.822;6.860;2022-10-19T08:11:57;11.30;99.90
55173;DHT22;41061;52.822;6.860;2022-10-19T08:14:22;11.70;99.90
55173;DHT22;41061;52.822;6.860;2022-10-19T08:16:48;11.50;99.90
55173;DHT22;41061;52.822;6.860;2022-10-19T08:19:15;11.40;99.90
55173;DHT22;41061;52.822;6.860;2022-10-19T08:21:45;11.50;99.90
55173;DHT22;41061;52.822;6.860;2022-10-19T08:24:13;11.50;99.90
55173;DHT22;41061;52.822;6.860;2022-10-19T08:26:39;11.60;99.90
55173;DHT22;41061;52.822;6.860;2022-10-19T08:29:09;11.70;99.90
55173;DHT22;41061;52.822;6.860;2022-10-19T08:34:03;10.80;99.90
55173;DHT22;41061;52.822;6.860;2022-10-19T08:36:29;11.90;99.90
55173;DHT22;41061;52.822;6.860;2022-10-19T08:38:57;11.90;99.90
55173;DHT22;41061;52.822;6.860;2022-10-19T08:42:01;12.10;99.90
55173;DHT22;41061;52.822;6.860;2022-10-19T08:49:56;12.10;99.90
55173;DHT22;41061;52.822;6.860;2022-10-19T08:52:26;12.10;99.90
55173;DHT22;41061;52.822;6.860;2022-10-19T08:55:00;12.20;99.90
55173;DHT22;41061;52.822;6.860;2022-10-19T08:57:53;12.30;99.90
55173;DHT22;41061;52.822;6.860;2022-10-19T09:00:42;12.20;99.90
55173;DHT22;41061;52.822;6.860;2022-10-19T09:08:39;12.40;99.90
55173;DHT22;41061;52.822;6.860;2022-10-19T09:11:05;12.40;99.90
55173;DHT22;41061;52.822;6.860;2022-10-19T09:13:45;12.60;99.90
55173;DHT22;41061;52.822;6.860;2022-10-19T09:16:17;12.40;99.90
55173;DHT22;41061;52.822;6.860;2022-10-19T09:18:44;12.60;99.90
55173;DHT22;41061;52.822;6.860;2022-10-19T09:21:17;12.60;99.90
55173;DHT22;41061;52.822;6.860;2022-10-19T09:24:05;12.60;99.90
55173;DHT22;41061;52.822;6.860;2022-10-19T09:26:46;12.70;99.90
55173;DHT22;41061;52.822;6.860;2022-10-19T09:29:28;12.70;99.90
55173;DHT22;41061;52.822;6.860;2022-10-19T09:32:00;12.70;99.90
55173;DHT22;41061;52.822;6.860;2022-10-19T09:34:33;12.80;99.90
55173;DHT22;41061;52.822;6.860;2022-10-19T09:39:28;12.50;99.90
55173;DHT22;41061;52.822;6.860;2022-10-19T09:44:40;12.90;99.90
55173;DHT22;41061;52.822;6.860;2022-10-19T09:47:34;12.80;99.90
55173;DHT22;41061;52.822;6.860;2022-10-19T09:50:19;12.60;99.90
55173;DHT22;41061;52.822;6.860;2022-10-19T09:52:56;12.70;99.90
55173;DHT22;41061;52.822;6.860;2022-10-19T09:55:42;13.00;99.90
55173;DHT22;41061;52.822;6.860;2022-10-19T10:00:48;12.70;99.90
55173;DHT22;41061;52.822;6.860;2022-10-19T10:03:36;12.70;99.90
55173;DHT22;41061;52.822;6.860;2022-10-19T10:06:11;12.80;99.90
55173;DHT22;41061;52.822;6.860;2022-10-19T10:08:45;13.00;99.90
55173;DHT22;41061;52.822;6.860;2022-10-19T10:13:40;12.90;99.90
55173;DHT22;41061;52.822;6.860;2022-10-19T10:16:10;13.00;99.90
55173;DHT22;41061;52.822;6.860;2022-10-19T10:18:53;13.00;99.90
55173;DHT22;41061;52.822;6.860;2022-10-19T10:21:25;13.00;99.90
55173;DHT22;41061;52.822;6.860;2022-10-19T10:26:43;13.00;99.90
55173;DHT22;41061;52.822;6.860;2022-10-19T10:29:24;15.70;99.90
55173;DHT22;41061;52.822;6.860;2022-10-19T10:31:54;13.00;99.90
55173;DHT22;41061;52.822;6.860;2022-10-19T10:34:31;13.30;99.90
55173;DHT22;41061;52.822;6.860;2022-10-19T10:39:29;13.20;99.90
55173;DHT22;41061;52.822;6.860;2022-10-19T10:41:59;13.30;99.90
55173;DHT22;41061;52.822;6.860;2022-10-19T10:44:27;13.20;99.90
55173;DHT22;41061;52.822;6.860;2022-10-19T10:49:33;13.20;99.90
55173;DHT22;41061;52.822;6.860;2022-10-19T10:52:13;13.10;99.90
55173;DHT22;41061;52.822;6.860;2022-10-19T10:54:40;13.10;99.90
55173;DHT22;41061;52.822;6.860;2022-10-19T10:57:22;13.10;99.90
55173;DHT22;41061;52.822;6.860;2022-10-19T10:59:57;13.40;99.90
55173;DHT22;41061;52.822;6.860;2022-10-19T11:04:55;13.30;99.90
55173;DHT22;41061;52.822;6.860;2022-10-19T11:07:23;13.20;99.90
55173;DHT22;41061;52.822;6.860;2022-10-19T11:09:59;13.10;99.90
55173;DHT22;41061;52.822;6.860;2022-10-19T11:12:56;13.30;99.90
55173;DHT22;41061;52.822;6.860;2022-10-19T11:15:26;13.30;99.90
55173;DHT22;41061;52.822;6.860;2022-10-19T11:17:58;13.40;99.90
55173;DHT22;41061;52.822;6.860;2022-10-19T11:20:29;13.40;99.90
55173;DHT22;41061;52.822;6.860;2022-10-19T11:31:54;13.60;99.90
55173;DHT22;41061;52.822;6.860;2022-10-19T11:37:19;13.80;99.90
55173;DHT22;41061;52.822;6.860;2022-10-19T11:43:28;14.10;99.90
55173;DHT22;41061;52.822;6.860;2022-10-19T11:46:14;14.20;99.90
55173;DHT22;41061;52.822;6.860;2022-10-19T11:52:00;14.00;99.90
55173;DHT22;41061;52.822;6.860;2022-10-19T11:57:18;14.00;99.90
55173;DHT22;41061;52.822;6.860;2022-10-19T12:00:42;13.90;99.90
55173;DHT22;41061;52.822;6.860;2022-10-19T12:08:28;14.30;99.90
55173;DHT22;41061;52.822;6.860;2022-10-19T12:14:08;14.50;99.90
55173;DHT22;41061;52.822;6.860;2022-10-19T12:19:14;14.60;99.90
55173;DHT22;41061;52.822;6.860;2022-10-19T12:21:42;14.70;99.90
55173;DHT22;41061;52.822;6.860;2022-10-19T12:24:18;14.70;99.90
55173;DHT22;41061;52.822;6.860;2022-10-19T12:29:18;14.80;99.90
55173;DHT22;41061;52.822;6.860;2022-10-19T12:31:47;14.50;99.90
55173;DHT22;41061;52.822;6.860;2022-10-19T12:34:44;14.80;99.90
55173;DHT22;41061;52.822;6.860;2022-10-19T12:42:55;14.30;99.90
55173;DHT22;41061;52.822;6.860;2022-10-19T12:46:22;14.20;99.90
55173;DHT22;41061;52.822;6.860;2022-10-19T12:48:22;14.20;99.90
55173;DHT22;41061;52.822;6.860;2022-10-19T12:58:48;14.10;99.90
55173;DHT22;41061;52.822;6.860;2022-10-19T13:04:17;14.00;99.90
55173;DHT22;41061;52.822;6.860;2022-10-19T13:06:58;13.90;99.90
55173;DHT22;41061;52.822;6.860;2022-10-19T13:09:33;13.90;99.90
55173;DHT22;41061;52.822;6.860;2022-10-19T13:22:49;13.90;99.90
55173;DHT22;41061;52.822;6.860;2022-10-19T13:27:43;13.80;99.90
55173;DHT22;41061;52.822;6.860;2022-10-19T13:32:55;13.70;99.90
55173;DHT22;41061;52.822;6.860;2022-10-19T13:35:33;13.90;99.90
55173;DHT22;41061;52.822;6.860;2022-10-19T13:51:01;13.60;99.90
55173;DHT22;41061;52.822;6.860;2022-10-19T14:11:01;13.50;99.90
55173;DHT22;41061;52.822;6.860;2022-10-19T14:15:56;13.20;99.90
55173;DHT22;41061;52.822;6.860;2022-10-19T14:18:34;13.20;99.90
55173;DHT22;41061;52.822;6.860;2022-10-19T14:21:03;13.20;99.90
55173;DHT22;41061;52.822;6.860;2022-10-19T14:23:32;13.20;99.90
55173;DHT22;41061;52.822;6.860;2022-10-19T14:26:06;13.20;99.90
55173;DHT22;41061;52.822;6.860;2022-10-19T14:28:32;13.10;99.90
55173;DHT22;41061;52.822;6.860;2022-10-19T14:31:03;13.10;99.90
55173;DHT22;41061;52.822;6.860;2022-10-19T14:33:32;13.10;99.90
55173;DHT22;41061;52.822;6.860;2022-10-19T14:35:58;13.00;99.90
55173;DHT22;41061;52.822;6.860;2022-10-19T14:38:32;13.00;99.90
55173;DHT22;41061;52.822;6.860;2022-10-19T14:46:07;13.40;99.90
55173;DHT22;41061;52.822;6.860;2022-10-19T14:48:47;13.10;99.90
55173;DHT22;41061;52.822;6.860;2022-10-19T14:53:48;12.90;99.90
55173;DHT22;41061;52.822;6.860;2022-10-19T14:56:25;12.90;99.90
55173;DHT22;41061;52.822;6.860;2022-10-19T14:58:59;12.90;99.90
55173;DHT22;41061;52.822;6.860;2022-10-19T15:01:26;12.80;99.90
55173;DHT22;41061;52.822;6.860;2022-10-19T15:03:52;12.70;99.90
55173;DHT22;41061;52.822;6.860;2022-10-19T15:06:22;12.70;99.90
55173;DHT22;41061;52.822;6.860;2022-10-19T15:08:54;12.70;99.90
55173;DHT22;41061;52.822;6.860;2022-10-19T15:11:38;12.70;99.90
55173;DHT22;41061;52.822;6.860;2022-10-19T15:14:08;12.60;99.90
55173;DHT22;41061;52.822;6.860;2022-10-19T15:21:44;12.50;99.90
55173;DHT22;41061;52.822;6.860;2022-10-19T15:24:26;12.50;99.90
55173;DHT22;41061;52.822;6.860;2022-10-19T15:26:52;12.50;99.90
55173;DHT22;41061;52.822;6.860;2022-10-19T15:29:21;12.40;99.90
55173;DHT22;41061;52.822;6.860;2022-10-19T15:31:47;12.40;99.90
55173;DHT22;41061;52.822;6.860;2022-10-19T15:34:27;12.40;99.90
55173;DHT22;41061;52.822;6.860;2022-10-19T15:36:57;12.20;99.90
55173;DHT22;41061;52.822;6.860;2022-10-19T15:39:31;12.20;99.90
55173;DHT22;41061;52.822;6.860;2022-10-19T15:44:45;12.20;99.90
55173;DHT22;41061;52.822;6.860;2022-10-19T15:47:18;12.20;99.90
55173;DHT22;41061;52.822;6.860;2022-10-19T15:52:18;12.20;99.90
55173;DHT22;41061;52.822;6.860;2022-10-19T15:54:54;12.10;99.90
55173;DHT22;41061;52.822;6.860;2022-10-19T15:59:49;12.00;99.90
55173;DHT22;41061;52.822;6.860;2022-10-19T16:02:15;11.90;99.90
55173;DHT22;41061;52.822;6.860;2022-10-19T16:04:40;11.90;99.90
55173;DHT22;41061;52.822;6.860;2022-10-19T16:07:09;11.90;99.90
55173;DHT22;41061;52.822;6.860;2022-10-19T16:09:38;11.80;99.90
55173;DHT22;41061;52.822;6.860;2022-10-19T16:12:04;11.80;99.90
55173;DHT22;41061;52.822;6.860;2022-10-19T16:14:29;11.70;99.90
55173;DHT22;41061;52.822;6.860;2022-10-19T16:16:55;11.70;99.90
55173;DHT22;41061;52.822;6.860;2022-10-19T16:19:21;11.60;99.90
55173;DHT22;41061;52.822;6.860;2022-10-19T16:21:46;11.50;99.90
55173;DHT22;41061;52.822;6.860;2022-10-19T16:24:12;11.50;99.90
55173;DHT22;41061;52.822;6.860;2022-10-19T16:26:38;11.50;99.90
55173;DHT22;41061;52.822;6.860;2022-10-19T16:29:04;11.40;99.90
55173;DHT22;41061;52.822;6.860;2022-10-19T16:31:29;11.40;99.90
55173;DHT22;41061;52.822;6.860;2022-10-19T16:33:56;11.30;99.90
55173;DHT22;41061;52.822;6.860;2022-10-19T16:36:21;11.30;99.90
55173;DHT22;41061;52.822;6.860;2022-10-19T16:38:47;11.20;99.90
55173;DHT22;41061;52.822;6.860;2022-10-19T16:41:13;11.20;99.90
55173;DHT22;41061;52.822;6.860;2022-10-19T16:43:39;11.10;99.90
55173;DHT22;41061;52.822;6.860;2022-10-19T16:46:05;11.10;99.90
55173;DHT22;41061;52.822;6.860;2022-10-19T16:48:31;11.00;99.90
55173;DHT22;41061;52.822;6.860;2022-10-19T16:53:33;11.00;99.90
55173;DHT22;41061;52.822;6.860;2022-10-19T16:56:07;10.90;99.90
55173;DHT22;41061;52.822;6.860;2022-10-19T16:58:33;10.90;99.90
55173;DHT22;41061;52.822;6.860;2022-10-19T17:01:17;10.90;99.90
55173;DHT22;41061;52.822;6.860;2022-10-19T17:03:44;10.90;99.90
55173;DHT22;41061;52.822;6.860;2022-10-19T17:06:11;10.80;99.90
55173;DHT22;41061;52.822;6.860;2022-10-19T17:08:37;10.80;99.90
55173;DHT22;41061;52.822;6.860;2022-10-19T17:11:17;10.70;99.90
55173;DHT22;41061;52.822;6.860;2022-10-19T17:13:45;10.60;99.90
55173;DHT22;41061;52.822;6.860;2022-10-19T17:16:11;10.60;99.90
55173;DHT22;41061;52.822;6.860;2022-10-19T17:18:37;10.60;99.90
55173;DHT22;41061;52.822;6.860;2022-10-19T17:21:08;10.60;99.90
55173;DHT22;41061;52.822;6.860;2022-10-19T17:23:35;10.60;99.90
55173;DHT22;41061;52.822;6.860;2022-10-19T17:26:01;10.70;99.90
55173;DHT22;41061;52.822;6.860;2022-10-19T17:28:27;10.50;99.90
55173;DHT22;41061;52.822;6.860;2022-10-19T17:30:54;10.40;99.90
55173;DHT22;41061;52.822;6.860;2022-10-19T17:33:22;10.30;99.90
55173;DHT22;41061;52.822;6.860;2022-10-19T17:35:50;10.40;99.90
55173;DHT22;41061;52.822;6.860;2022-10-19T17:40:45;10.30;99.90
55173;DHT22;41061;52.822;6.860;2022-10-19T17:43:10;10.30;99.90
55173;DHT22;41061;52.822;6.860;2022-10-19T17:48:05;8.90;99.90
55173;DHT22;41061;52.822;6.860;2022-10-19T17:50:32;10.10;99.90
55173;DHT22;41061;52.822;6.860;2022-10-19T17:52:58;10.10;99.90
55173;DHT22;41061;52.822;6.860;2022-10-19T17:55:25;10.10;99.90
55173;DHT22;41061;52.822;6.860;2022-10-19T17:57:51;10.10;99.90
55173;DHT22;41061;52.822;6.860;2022-10-19T18:00:17;10.00;99.90
55173;DHT22;41061;52.822;6.860;2022-10-19T18:02:44;10.00;99.90
55173;DHT22;41061;52.822;6.860;2022-10-19T18:05:09;10.00;99.90
55173;DHT22;41061;52.822;6.860;2022-10-19T18:10:02;9.80;99.90
55173;DHT22;41061;52.822;6.860;2022-10-19T18:24:46;9.80;99.90
55173;DHT22;41061;52.822;6.860;2022-10-19T18:27:12;9.90;99.90
55173;DHT22;41061;52.822;6.860;2022-10-19T18:29:38;9.90;99.90
55173;DHT22;41061;52.822;6.860;2022-10-19T18:32:04;9.90;99.90
55173;DHT22;41061;52.822;6.860;2022-10-19T18:34:29;9.70;99.90
55173;DHT22;41061;52.822;6.860;2022-10-19T18:36:55;9.70;99.90
55173;DHT22;41061;52.822;6.860;2022-10-19T18:39:21;9.70;99.90
55173;DHT22;41061;52.822;6.860;2022-10-19T18:41:50;9.70;99.90
55173;DHT22;41061;52.822;6.860;2022-10-19T18:44:18;9.70;99.90
55173;DHT22;41061;52.822;6.860;2022-10-19T18:46:43;9.60;99.90
55173;DHT22;41061;52.822;6.860;2022-10-19T18:49:10;9.60;99.90
55173;DHT22;41061;52.822;6.860;2022-10-19T18:51:37;9.50;99.90
55173;DHT22;41061;52.822;6.860;2022-10-19T18:54:03;9.50;99.90
55173;DHT22;41061;52.822;6.860;2022-10-19T18:59:01;9.50;99.90
55173;DHT22;41061;52.822;6.860;2022-10-19T19:01:27;9.70;99.90
55173;DHT22;41061;52.822;6.860;2022-10-19T19:03:55;9.60;99.90
55173;DHT22;41061;52.822;6.860;2022-10-19T19:08:59;9.30;99.90
55173;DHT22;41061;52.822;6.860;2022-10-19T19:11:30;9.50;99.90
55173;DHT22;41061;52.822;6.860;2022-10-19T19:13:58;9.40;99.90
55173;DHT22;41061;52.822;6.860;2022-10-19T19:16:25;9.40;99.90
55173;DHT22;41061;52.822;6.860;2022-10-19T19:23:48;9.30;99.90
55173;DHT22;41061;52.822;6.860;2022-10-19T19:26:14;9.40;99.90
55173;DHT22;41061;52.822;6.860;2022-10-19T19:28:40;9.30;99.90
55173;DHT22;41061;52.822;6.860;2022-10-19T19:33:36;9.30;99.90
55173;DHT22;41061;52.822;6.860;2022-10-19T19:36:06;9.30;99.90
55173;DHT22;41061;52.822;6.860;2022-10-19T19:38:33;9.20;99.90
55173;DHT22;41061;52.822;6.860;2022-10-19T19:41:01;9.30;99.90
55173;DHT22;41061;52.822;6.860;2022-10-19T19:43:30;9.30;99.90
55173;DHT22;41061;52.822;6.860;2022-10-19T19:45:58;9.40;99.90
55173;DHT22;41061;52.822;6.860;2022-10-19T19:48:24;9.30;99.90
55173;DHT22;41061;52.822;6.860;2022-10-19T19:50:49;9.30;99.90
55173;DHT22;41061;52.822;6.860;2022-10-19T19:55:46;9.10;99.90
55173;DHT22;41061;52.822;6.860;2022-10-19T19:58:12;9.10;99.90
55173;DHT22;41061;52.822;6.860;2022-10-19T20:00:40;9.20;99.90
55173;DHT22;41061;52.822;6.860;2022-10-19T20:07:58;9.00;99.90
55173;DHT22;41061;52.822;6.860;2022-10-19T20:10:24;9.00;99.90
55173;DHT22;41061;52.822;6.860;2022-10-19T20:12:50;8.90;99.90
55173;DHT22;41061;52.822;6.860;2022-10-19T20:15:16;8.80;99.90
55173;DHT22;41061;52.822;6.860;2022-10-19T20:17:43;8.80;99.90
55173;DHT22;41061;52.822;6.860;2022-10-19T20:20:10;8.80;99.90
55173;DHT22;41061;52.822;6.860;2022-10-19T20:22:37;8.80;99.90